Terminal Aerodrome Forecast
Issued by NWS Brownsville, TX

Home | Current Version | Previous Version | Text Only | Print | Product List | Glossary On
Versions: 1 2 3 4 5 6 7 8 9 10 11 12 13 14 15 16 17 18 19
000
FTUS44 KBRO 011121
TAFHRL
TAF
KHRL 011121Z 0112/0212 31010KT 1 1/2SM BR OVC002
     FM011500 33008KT 1 1/2SM BR OVC007
     FM012100 32011KT 4SM BR OVC015
     FM020300 36013KT 1 1/2SM BR OVC015
     FM020600 35011KT 5SM BR OVC007
     FM020900 35010KT P6SM OVC007=

USA.gov is the U.S. government's official web portal to all federal, state and local government web resources and services.